North Sydney, Canada
Current Conditions -  °F | °C
As of 12:00 PM on Friday 24 Oct 2014 (Local Time) from CYQY Reporting Station
Heavy Rain Heavy Rain  
Wind Chill: 55°   Ceiling: 400
Heat Index: 55°   Visibility: 0.75mi
Dew Point: 55°   Wind: 12mph
Humidity: 100%   Direction: 120°ESE
Pressure: 29.64"   Gusts: NA
Location:  46.21°N, 60.25°W
Report Text: CYQY 241500Z 12010KT 3/4SM R07/4500VP6000FT/D +RA BR FEW002 OVC004 13/13 A2964 RMK ST2NS6 SLP036 DENSITY ALT 300FT
Loading
Personal Weather Stations






























Interactive Weather Map
Tropical Storm Tracking
New forecast layout! Learn more

10-Day Weather Forecast

Advertisements
Track Severe Weather on mobile